sensor_id;sensor_type;location;lat;lon;timestamp;P1;durP1;ratioP1;P2;durP2;ratioP2
39782;SDS011;25462;51.164;17.100;2024-01-10T00:17:12;184.90;;;62.40;;
39782;SDS011;25462;51.164;17.100;2024-01-10T00:23:25;175.00;;;58.10;;
39782;SDS011;25462;51.164;17.100;2024-01-10T00:30:03;189.00;;;61.70;;
39782;SDS011;25462;51.164;17.100;2024-01-10T01:47:15;150.10;;;45.90;;
39782;SDS011;25462;51.164;17.100;2024-01-10T02:12:53;110.50;;;39.80;;
39782;SDS011;25462;51.164;17.100;2024-01-10T02:19:33;126.90;;;43.50;;
39782;SDS011;25462;51.164;17.100;2024-01-10T02:57:43;131.30;;;42.50;;
39782;SDS011;25462;51.164;17.100;2024-01-10T03:03:52;108.60;;;37.50;;
39782;SDS011;25462;51.164;17.100;2024-01-10T04:13:36;153.90;;;54.60;;
39782;SDS011;25462;51.164;17.100;2024-01-10T04:45:34;157.40;;;55.20;;
39782;SDS011;25462;51.164;17.100;2024-01-10T05:10:34;177.70;;;58.00;;
39782;SDS011;25462;51.164;17.100;2024-01-10T05:16:45;129.50;;;44.00;;
39782;SDS011;25462;51.164;17.100;2024-01-10T05:42:17;180.40;;;60.20;;
39782;SDS011;25462;51.164;17.100;2024-01-10T05:48:26;176.00;;;59.40;;
39782;SDS011;25462;51.164;17.100;2024-01-10T06:01:04;132.40;;;43.20;;
39782;SDS011;25462;51.164;17.100;2024-01-10T06:39:09;157.30;;;54.00;;
39782;SDS011;25462;51.164;17.100;2024-01-10T06:45:37;186.20;;;67.10;;
39782;SDS011;25462;51.164;17.100;2024-01-10T06:58:04;171.60;;;61.20;;
39782;SDS011;25462;51.164;17.100;2024-01-10T08:27:17;169.60;;;61.40;;
39782;SDS011;25462;51.164;17.100;2024-01-10T10:09:14;145.00;;;54.50;;
39782;SDS011;25462;51.164;17.100;2024-01-10T12:24:32;131.80;;;51.90;;
39782;SDS011;25462;51.164;17.100;2024-01-10T12:37:11;131.50;;;49.80;;
39782;SDS011;25462;51.164;17.100;2024-01-10T13:28:04;107.00;;;43.20;;
39782;SDS011;25462;51.164;17.100;2024-01-10T13:46:39;128.90;;;52.30;;
39782;SDS011;25462;51.164;17.100;2024-01-10T14:23:26;130.30;;;49.80;;
39782;SDS011;25462;51.164;17.100;2024-01-10T14:47:42;132.00;;;49.70;;
39782;SDS011;25462;51.164;17.100;2024-01-10T15:19:45;138.90;;;52.50;;
39782;SDS011;25462;51.164;17.100;2024-01-10T15:25:31;197.60;;;71.40;;
39782;SDS011;25462;51.164;17.100;2024-01-10T15:43:45;142.30;;;56.80;;
39782;SDS011;25462;51.164;17.100;2024-01-10T15:55:23;127.90;;;48.20;;
39782;SDS011;25462;51.164;17.100;2024-01-10T16:01:04;142.40;;;54.90;;
39782;SDS011;25462;51.164;17.100;2024-01-10T16:06:17;146.70;;;57.30;;
39782;SDS011;25462;51.164;17.100;2024-01-10T16:12:30;184.50;;;64.40;;
39782;SDS011;25462;51.164;17.100;2024-01-10T16:24:08;174.40;;;63.00;;
39782;SDS011;25462;51.164;17.100;2024-01-10T16:29:44;172.60;;;64.10;;
39782;SDS011;25462;51.164;17.100;2024-01-10T16:42:14;180.90;;;67.50;;
39782;SDS011;25462;51.164;17.100;2024-01-10T16:54:17;197.60;;;70.90;;
39782;SDS011;25462;51.164;17.100;2024-01-10T17:00:56;191.10;;;73.60;;
39782;SDS011;25462;51.164;17.100;2024-01-10T17:06:03;223.60;;;79.70;;
39782;SDS011;25462;51.164;17.100;2024-01-10T17:11:09;213.60;;;79.50;;
39782;SDS011;25462;51.164;17.100;2024-01-10T17:16:22;207.00;;;80.10;;
39782;SDS011;25462;51.164;17.100;2024-01-10T17:21:39;228.50;;;86.40;;
39782;SDS011;25462;51.164;17.100;2024-01-10T17:26:47;241.70;;;87.80;;
39782;SDS011;25462;51.164;17.100;2024-01-10T17:31:54;245.80;;;90.20;;
39782;SDS011;25462;51.164;17.100;2024-01-10T17:37:03;225.10;;;89.10;;
39782;SDS011;25462;51.164;17.100;2024-01-10T17:42:11;263.40;;;95.70;;
39782;SDS011;25462;51.164;17.100;2024-01-10T17:47:18;252.80;;;96.00;;
39782;SDS011;25462;51.164;17.100;2024-01-10T17:52:42;268.60;;;98.20;;
39782;SDS011;25462;51.164;17.100;2024-01-10T17:57:48;270.40;;;102.90;;
39782;SDS011;25462;51.164;17.100;2024-01-10T18:03:03;253.40;;;97.90;;
39782;SDS011;25462;51.164;17.100;2024-01-10T18:08:16;274.30;;;99.70;;
39782;SDS011;25462;51.164;17.100;2024-01-10T18:13:22;268.10;;;99.00;;
39782;SDS011;25462;51.164;17.100;2024-01-10T18:18:26;284.70;;;104.10;;
39782;SDS011;25462;51.164;17.100;2024-01-10T18:23:56;472.00;;;156.90;;
39782;SDS011;25462;51.164;17.100;2024-01-10T18:29:01;282.90;;;95.40;;
39782;SDS011;25462;51.164;17.100;2024-01-10T18:34:05;273.20;;;99.90;;
39782;SDS011;25462;51.164;17.100;2024-01-10T18:39:22;255.10;;;92.30;;
39782;SDS011;25462;51.164;17.100;2024-01-10T18:44:40;255.90;;;94.20;;
39782;SDS011;25462;51.164;17.100;2024-01-10T18:50:06;257.50;;;100.80;;
39782;SDS011;25462;51.164;17.100;2024-01-10T18:55:24;294.40;;;105.30;;
39782;SDS011;25462;51.164;17.100;2024-01-10T19:01:32;244.90;;;93.30;;
39782;SDS011;25462;51.164;17.100;2024-01-10T19:15:14;276.90;;;100.70;;
39782;SDS011;25462;51.164;17.100;2024-01-10T19:21:41;455.30;;;154.60;;
39782;SDS011;25462;51.164;17.100;2024-01-10T19:27:37;919.50;;;314.40;;
39782;SDS011;25462;51.164;17.100;2024-01-10T19:33:10;423.60;;;144.20;;
39782;SDS011;25462;51.164;17.100;2024-01-10T19:38:39;320.20;;;112.40;;
39782;SDS011;25462;51.164;17.100;2024-01-10T19:43:48;300.30;;;109.50;;
39782;SDS011;25462;51.164;17.100;2024-01-10T19:48:55;253.30;;;95.90;;
39782;SDS011;25462;51.164;17.100;2024-01-10T20:25:20;232.80;;;87.10;;
39782;SDS011;25462;51.164;17.100;2024-01-10T20:43:22;319.00;;;113.90;;
39782;SDS011;25462;51.164;17.100;2024-01-10T20:48:50;289.10;;;102.50;;
39782;SDS011;25462;51.164;17.100;2024-01-10T20:54:08;301.50;;;107.30;;
39782;SDS011;25462;51.164;17.100;2024-01-10T20:59:28;326.90;;;114.10;;
39782;SDS011;25462;51.164;17.100;2024-01-10T21:05:04;305.00;;;107.70;;
39782;SDS011;25462;51.164;17.100;2024-01-10T21:10:26;278.00;;;97.10;;
39782;SDS011;25462;51.164;17.100;2024-01-10T21:21:17;379.90;;;137.00;;
39782;SDS011;25462;51.164;17.100;2024-01-10T21:27:17;403.70;;;143.50;;
39782;SDS011;25462;51.164;17.100;2024-01-10T21:32:49;367.80;;;126.30;;
39782;SDS011;25462;51.164;17.100;2024-01-10T21:38:00;307.10;;;109.30;;
39782;SDS011;25462;51.164;17.100;2024-01-10T21:43:15;317.20;;;114.00;;
39782;SDS011;25462;51.164;17.100;2024-01-10T21:48:25;275.40;;;103.90;;
39782;SDS011;25462;51.164;17.100;2024-01-10T21:53:36;297.90;;;103.40;;
39782;SDS011;25462;51.164;17.100;2024-01-10T21:58:44;291.90;;;105.10;;
39782;SDS011;25462;51.164;17.100;2024-01-10T22:03:58;293.60;;;105.50;;
39782;SDS011;25462;51.164;17.100;2024-01-10T22:09:02;280.60;;;104.50;;
39782;SDS011;25462;51.164;17.100;2024-01-10T22:14:07;259.90;;;100.50;;
39782;SDS011;25462;51.164;17.100;2024-01-10T22:19:13;301.60;;;106.80;;
39782;SDS011;25462;51.164;17.100;2024-01-10T22:24:19;271.30;;;101.70;;
39782;SDS011;25462;51.164;17.100;2024-01-10T22:29:24;266.60;;;96.10;;
39782;SDS011;25462;51.164;17.100;2024-01-10T22:34:30;258.70;;;96.70;;
39782;SDS011;25462;51.164;17.100;2024-01-10T22:39:37;272.60;;;101.70;;
39782;SDS011;25462;51.164;17.100;2024-01-10T22:44:50;286.00;;;103.70;;
39782;SDS011;25462;51.164;17.100;2024-01-10T22:49:54;330.10;;;111.40;;
39782;SDS011;25462;51.164;17.100;2024-01-10T22:55:10;320.00;;;116.50;;
39782;SDS011;25462;51.164;17.100;2024-01-10T23:00:18;303.20;;;113.90;;
39782;SDS011;25462;51.164;17.100;2024-01-10T23:05:27;287.70;;;103.60;;
39782;SDS011;25462;51.164;17.100;2024-01-10T23:10:32;284.90;;;100.00;;
39782;SDS011;25462;51.164;17.100;2024-01-10T23:15:37;260.70;;;92.70;;
39782;SDS011;25462;51.164;17.100;2024-01-10T23:20:42;251.30;;;89.90;;
39782;SDS011;25462;51.164;17.100;2024-01-10T23:25:47;243.50;;;86.70;;
39782;SDS011;25462;51.164;17.100;2024-01-10T23:30:55;238.60;;;85.60;;
39782;SDS011;25462;51.164;17.100;2024-01-10T23:36:00;237.30;;;89.60;;
39782;SDS011;25462;51.164;17.100;2024-01-10T23:41:16;259.90;;;95.60;;
39782;SDS011;25462;51.164;17.100;2024-01-10T23:46:51;215.80;;;82.60;;
39782;SDS011;25462;51.164;17.100;2024-01-10T23:51:57;248.40;;;90.70;;
39782;SDS011;25462;51.164;17.100;2024-01-10T23:57:01;295.50;;;106.20;;
